sensor_id;sensor_type;location;lat;lon;timestamp;temperature;humidity
5138;DHT22;53959;53.626;11.410;2022-10-31T00:00:54;12.50;99.90
5138;DHT22;53959;53.626;11.410;2022-10-31T00:03:19;12.50;99.90
5138;DHT22;53959;53.626;11.410;2022-10-31T00:05:47;12.50;99.90
5138;DHT22;53959;53.626;11.410;2022-10-31T00:08:13;12.50;99.90
5138;DHT22;53959;53.626;11.410;2022-10-31T00:10:39;12.50;99.90
5138;DHT22;53959;53.626;11.410;2022-10-31T00:13:06;12.40;99.90
5138;DHT22;53959;53.626;11.410;2022-10-31T00:15:36;12.40;99.90
5138;DHT22;53959;53.626;11.410;2022-10-31T00:18:02;12.40;99.90
5138;DHT22;53959;53.626;11.410;2022-10-31T00:20:28;12.30;99.90
5138;DHT22;53959;53.626;11.410;2022-10-31T00:22:57;12.40;99.90
5138;DHT22;53959;53.626;11.410;2022-10-31T00:25:23;12.30;99.90
5138;DHT22;53959;53.626;11.410;2022-10-31T00:27:48;12.30;99.90
5138;DHT22;53959;53.626;11.410;2022-10-31T00:30:14;12.30;99.90
5138;DHT22;53959;53.626;11.410;2022-10-31T00:32:39;12.30;99.90
5138;DHT22;53959;53.626;11.410;2022-10-31T00:35:05;12.30;99.90
5138;DHT22;53959;53.626;11.410;2022-10-31T00:37:31;12.30;99.90
5138;DHT22;53959;53.626;11.410;2022-10-31T00:39:56;12.30;99.90
5138;DHT22;53959;53.626;11.410;2022-10-31T00:42:22;12.20;99.90
5138;DHT22;53959;53.626;11.410;2022-10-31T00:44:47;12.30;99.90
5138;DHT22;53959;53.626;11.410;2022-10-31T00:47:13;12.30;99.90
5138;DHT22;53959;53.626;11.410;2022-10-31T00:49:38;12.30;99.90
5138;DHT22;53959;53.626;11.410;2022-10-31T00:52:04;12.30;99.90
5138;DHT22;53959;53.626;11.410;2022-10-31T00:54:29;12.20;99.90
5138;DHT22;53959;53.626;11.410;2022-10-31T00:56:56;12.20;99.90
5138;DHT22;53959;53.626;11.410;2022-10-31T00:59:22;12.10;99.90
5138;DHT22;53959;53.626;11.410;2022-10-31T01:01:47;12.10;99.90
5138;DHT22;53959;53.626;11.410;2022-10-31T01:04:13;12.00;99.90
5138;DHT22;53959;53.626;11.410;2022-10-31T01:06:39;12.00;99.90
5138;DHT22;53959;53.626;11.410;2022-10-31T01:09:04;11.90;99.90
5138;DHT22;53959;53.626;11.410;2022-10-31T01:11:30;11.90;99.90
5138;DHT22;53959;53.626;11.410;2022-10-31T01:13:55;11.90;99.90
5138;DHT22;53959;53.626;11.410;2022-10-31T01:16:24;11.90;99.90
5138;DHT22;53959;53.626;11.410;2022-10-31T01:18:51;11.90;99.90
5138;DHT22;53959;53.626;11.410;2022-10-31T01:21:19;11.80;99.90
5138;DHT22;53959;53.626;11.410;2022-10-31T01:23:45;11.70;99.90
5138;DHT22;53959;53.626;11.410;2022-10-31T01:26:16;11.70;99.90
5138;DHT22;53959;53.626;11.410;2022-10-31T01:28:53;11.60;99.90
5138;DHT22;53959;53.626;11.410;2022-10-31T01:31:21;11.60;99.90
5138;DHT22;53959;53.626;11.410;2022-10-31T01:33:48;11.60;99.90
5138;DHT22;53959;53.626;11.410;2022-10-31T01:36:27;11.50;99.90
5138;DHT22;53959;53.626;11.410;2022-10-31T01:38:55;11.40;99.90
5138;DHT22;53959;53.626;11.410;2022-10-31T01:41:25;11.40;99.90
5138;DHT22;53959;53.626;11.410;2022-10-31T01:43:59;11.30;99.90
5138;DHT22;53959;53.626;11.410;2022-10-31T01:46:35;11.30;99.90
5138;DHT22;53959;53.626;11.410;2022-10-31T01:49:05;11.30;99.90
5138;DHT22;53959;53.626;11.410;2022-10-31T01:51:35;11.20;99.90
5138;DHT22;53959;53.626;11.410;2022-10-31T01:54:05;11.30;99.90
5138;DHT22;53959;53.626;11.410;2022-10-31T01:56:33;11.20;99.90
5138;DHT22;53959;53.626;11.410;2022-10-31T01:59:01;11.20;99.90
5138;DHT22;53959;53.626;11.410;2022-10-31T02:01:28;11.30;99.90
5138;DHT22;53959;53.626;11.410;2022-10-31T02:03:55;11.40;99.90
5138;DHT22;53959;53.626;11.410;2022-10-31T02:06:48;11.40;99.90
5138;DHT22;53959;53.626;11.410;2022-10-31T02:09:16;11.20;99.90
5138;DHT22;53959;53.626;11.410;2022-10-31T02:11:43;11.30;99.90
5138;DHT22;53959;53.626;11.410;2022-10-31T02:14:09;11.30;99.90
5138;DHT22;53959;53.626;11.410;2022-10-31T02:16:35;11.30;99.90
5138;DHT22;53959;53.626;11.410;2022-10-31T02:19:01;11.40;99.90
5138;DHT22;53959;53.626;11.410;2022-10-31T02:24:29;11.10;99.90
5138;DHT22;53959;53.626;11.410;2022-10-31T02:27:39;10.90;99.90
5138;DHT22;53959;53.626;11.410;2022-10-31T02:30:17;10.80;99.90
5138;DHT22;53959;53.626;11.410;2022-10-31T02:35:29;10.70;99.90
5138;DHT22;53959;53.626;11.410;2022-10-31T02:38:19;10.70;99.90
5138;DHT22;53959;53.626;11.410;2022-10-31T02:43:20;10.70;99.90
5138;DHT22;53959;53.626;11.410;2022-10-31T02:48:28;10.90;99.90
5138;DHT22;53959;53.626;11.410;2022-10-31T02:50:59;10.90;99.90
5138;DHT22;53959;53.626;11.410;2022-10-31T02:53:25;10.90;99.90
5138;DHT22;53959;53.626;11.410;2022-10-31T02:55:58;10.90;99.90
5138;DHT22;53959;53.626;11.410;2022-10-31T02:58:27;10.90;99.90
5138;DHT22;53959;53.626;11.410;2022-10-31T03:03:54;10.90;99.90
5138;DHT22;53959;53.626;11.410;2022-10-31T03:06:45;10.90;99.90
5138;DHT22;53959;53.626;11.410;2022-10-31T03:12:07;11.10;99.90
5138;DHT22;53959;53.626;11.410;2022-10-31T03:14:41;10.90;99.90
5138;DHT22;53959;53.626;11.410;2022-10-31T03:17:12;10.80;99.90
5138;DHT22;53959;53.626;11.410;2022-10-31T03:19:42;10.80;99.90
5138;DHT22;53959;53.626;11.410;2022-10-31T03:22:15;10.80;99.90
5138;DHT22;53959;53.626;11.410;2022-10-31T03:24:42;10.70;99.90
5138;DHT22;53959;53.626;11.410;2022-10-31T03:27:10;10.70;99.90
5138;DHT22;53959;53.626;11.410;2022-10-31T03:29:40;10.80;99.90
5138;DHT22;53959;53.626;11.410;2022-10-31T03:32:19;10.80;99.90
5138;DHT22;53959;53.626;11.410;2022-10-31T03:34:47;10.80;99.90
5138;DHT22;53959;53.626;11.410;2022-10-31T03:37:17;10.70;99.90
5138;DHT22;53959;53.626;11.410;2022-10-31T03:39:45;10.60;99.90
5138;DHT22;53959;53.626;11.410;2022-10-31T03:42:15;10.60;99.90
5138;DHT22;53959;53.626;11.410;2022-10-31T03:44:43;10.60;99.90
5138;DHT22;53959;53.626;11.410;2022-10-31T03:47:11;10.60;99.90
5138;DHT22;53959;53.626;11.410;2022-10-31T03:49:37;10.50;99.90
5138;DHT22;53959;53.626;11.410;2022-10-31T03:52:20;10.50;99.90
5138;DHT22;53959;53.626;11.410;2022-10-31T03:54:54;10.50;99.90
5138;DHT22;53959;53.626;11.410;2022-10-31T04:00:09;10.60;99.90
5138;DHT22;53959;53.626;11.410;2022-10-31T04:02:40;10.50;99.90
5138;DHT22;53959;53.626;11.410;2022-10-31T04:05:08;10.60;99.90
5138;DHT22;53959;53.626;11.410;2022-10-31T04:07:40;10.60;99.90
5138;DHT22;53959;53.626;11.410;2022-10-31T04:10:09;10.60;99.90
5138;DHT22;53959;53.626;11.410;2022-10-31T04:12:37;10.60;99.90
5138;DHT22;53959;53.626;11.410;2022-10-31T04:15:05;10.70;99.90
5138;DHT22;53959;53.626;11.410;2022-10-31T04:17:35;10.70;99.90
5138;DHT22;53959;53.626;11.410;2022-10-31T04:20:02;10.60;99.90
5138;DHT22;53959;53.626;11.410;2022-10-31T04:22:27;10.70;99.90
5138;DHT22;53959;53.626;11.410;2022-10-31T04:24:53;10.60;99.90
5138;DHT22;53959;53.626;11.410;2022-10-31T04:27:18;10.70;99.90
5138;DHT22;53959;53.626;11.410;2022-10-31T04:29:44;10.70;99.90
5138;DHT22;53959;53.626;11.410;2022-10-31T04:32:09;10.70;99.90
5138;DHT22;53959;53.626;11.410;2022-10-31T04:34:35;10.70;99.90
5138;DHT22;53959;53.626;11.410;2022-10-31T04:37:00;10.70;99.90
5138;DHT22;53959;53.626;11.410;2022-10-31T04:39:26;10.80;99.90
5138;DHT22;53959;53.626;11.410;2022-10-31T04:41:52;10.80;99.90
5138;DHT22;53959;53.626;11.410;2022-10-31T04:44:17;10.80;99.90
5138;DHT22;53959;53.626;11.410;2022-10-31T04:46:43;10.80;99.90
5138;DHT22;53959;53.626;11.410;2022-10-31T04:49:08;10.90;99.90
5138;DHT22;53959;53.626;11.410;2022-10-31T04:51:34;11.00;99.90
5138;DHT22;53959;53.626;11.410;2022-10-31T04:53:59;11.00;99.90
5138;DHT22;53959;53.626;11.410;2022-10-31T04:56:25;11.20;99.90
5138;DHT22;53959;53.626;11.410;2022-10-31T04:58:51;11.20;99.90
5138;DHT22;53959;53.626;11.410;2022-10-31T05:01:16;11.20;99.90
5138;DHT22;53959;53.626;11.410;2022-10-31T05:03:42;11.20;99.90
5138;DHT22;53959;53.626;11.410;2022-10-31T05:06:07;11.30;99.90
5138;DHT22;53959;53.626;11.410;2022-10-31T05:08:33;11.30;99.90
5138;DHT22;53959;53.626;11.410;2022-10-31T05:11:02;11.40;99.90
5138;DHT22;53959;53.626;11.410;2022-10-31T05:13:28;11.50;99.90
5138;DHT22;53959;53.626;11.410;2022-10-31T05:15:54;11.50;99.90
5138;DHT22;53959;53.626;11.410;2022-10-31T05:18:20;11.50;99.90
5138;DHT22;53959;53.626;11.410;2022-10-31T05:20:46;11.50;99.90
5138;DHT22;53959;53.626;11.410;2022-10-31T05:23:11;11.50;99.90
5138;DHT22;53959;53.626;11.410;2022-10-31T05:25:37;11.50;99.90
5138;DHT22;53959;53.626;11.410;2022-10-31T05:28:02;11.60;99.90
5138;DHT22;53959;53.626;11.410;2022-10-31T05:30:30;11.60;99.90
5138;DHT22;53959;53.626;11.410;2022-10-31T05:32:56;11.70;99.90
5138;DHT22;53959;53.626;11.410;2022-10-31T05:35:30;11.70;99.90
5138;DHT22;53959;53.626;11.410;2022-10-31T05:37:56;11.80;99.90
5138;DHT22;53959;53.626;11.410;2022-10-31T05:40:24;11.80;99.90
5138;DHT22;53959;53.626;11.410;2022-10-31T05:42:54;11.70;99.90
5138;DHT22;53959;53.626;11.410;2022-10-31T05:45:21;11.80;99.90
5138;DHT22;53959;53.626;11.410;2022-10-31T05:47:51;11.80;99.90
5138;DHT22;53959;53.626;11.410;2022-10-31T05:50:17;11.80;99.90
5138;DHT22;53959;53.626;11.410;2022-10-31T05:52:43;11.90;99.90
5138;DHT22;53959;53.626;11.410;2022-10-31T05:55:08;11.90;99.90
5138;DHT22;53959;53.626;11.410;2022-10-31T05:57:34;11.90;99.90
5138;DHT22;53959;53.626;11.410;2022-10-31T06:00:00;11.90;99.90
5138;DHT22;53959;53.626;11.410;2022-10-31T06:02:25;11.90;99.90
5138;DHT22;53959;53.626;11.410;2022-10-31T06:04:52;11.90;99.90
5138;DHT22;53959;53.626;11.410;2022-10-31T06:07:17;12.00;99.90
5138;DHT22;53959;53.626;11.410;2022-10-31T06:09:43;11.90;99.90
5138;DHT22;53959;53.626;11.410;2022-10-31T06:12:09;11.90;99.90
5138;DHT22;53959;53.626;11.410;2022-10-31T06:14:34;12.00;99.90
5138;DHT22;53959;53.626;11.410;2022-10-31T06:17:00;12.00;99.90
5138;DHT22;53959;53.626;11.410;2022-10-31T06:19:25;12.10;99.90
5138;DHT22;53959;53.626;11.410;2022-10-31T06:21:51;12.20;99.90
5138;DHT22;53959;53.626;11.410;2022-10-31T06:24:16;12.20;99.90
5138;DHT22;53959;53.626;11.410;2022-10-31T06:26:42;12.20;99.90
5138;DHT22;53959;53.626;11.410;2022-10-31T06:29:07;12.20;99.90
5138;DHT22;53959;53.626;11.410;2022-10-31T06:31:33;12.30;99.90
5138;DHT22;53959;53.626;11.410;2022-10-31T06:33:58;12.30;99.90
5138;DHT22;53959;53.626;11.410;2022-10-31T06:36:24;12.30;99.90
5138;DHT22;53959;53.626;11.410;2022-10-31T06:38:49;12.30;99.90
5138;DHT22;53959;53.626;11.410;2022-10-31T06:41:15;12.40;99.90
5138;DHT22;53959;53.626;11.410;2022-10-31T06:43:40;12.40;99.90
5138;DHT22;53959;53.626;11.410;2022-10-31T06:46:06;12.40;99.90
5138;DHT22;53959;53.626;11.410;2022-10-31T06:48:32;12.50;99.90
5138;DHT22;53959;53.626;11.410;2022-10-31T06:51:01;12.50;99.90
5138;DHT22;53959;53.626;11.410;2022-10-31T06:53:27;12.50;99.90
5138;DHT22;53959;53.626;11.410;2022-10-31T06:55:55;12.60;99.90
5138;DHT22;53959;53.626;11.410;2022-10-31T06:58:21;12.60;99.90
5138;DHT22;53959;53.626;11.410;2022-10-31T07:00:46;12.70;99.90
5138;DHT22;53959;53.626;11.410;2022-10-31T07:03:13;12.70;99.90
5138;DHT22;53959;53.626;11.410;2022-10-31T07:05:39;12.70;99.90
5138;DHT22;53959;53.626;11.410;2022-10-31T07:08:12;12.70;99.90
5138;DHT22;53959;53.626;11.410;2022-10-31T07:10:39;12.70;99.90
5138;DHT22;53959;53.626;11.410;2022-10-31T07:13:06;12.80;99.90
5138;DHT22;53959;53.626;11.410;2022-10-31T07:15:36;12.80;99.90
5138;DHT22;53959;53.626;11.410;2022-10-31T07:18:04;12.90;99.90
5138;DHT22;53959;53.626;11.410;2022-10-31T07:20:30;12.90;99.90
5138;DHT22;53959;53.626;11.410;2022-10-31T07:22:56;12.90;99.90
5138;DHT22;53959;53.626;11.410;2022-10-31T07:25:22;12.90;99.90
5138;DHT22;53959;53.626;11.410;2022-10-31T07:27:47;13.00;99.90
5138;DHT22;53959;53.626;11.410;2022-10-31T07:30:13;13.00;99.90
5138;DHT22;53959;53.626;11.410;2022-10-31T07:32:44;13.10;99.90
5138;DHT22;53959;53.626;11.410;2022-10-31T07:35:16;13.00;99.90
5138;DHT22;53959;53.626;11.410;2022-10-31T07:37:42;13.10;99.90
5138;DHT22;53959;53.626;11.410;2022-10-31T07:40:08;13.20;99.90
5138;DHT22;53959;53.626;11.410;2022-10-31T07:42:38;13.10;99.90
5138;DHT22;53959;53.626;11.410;2022-10-31T07:45:06;13.20;99.90
5138;DHT22;53959;53.626;11.410;2022-10-31T07:47:45;13.20;99.90
5138;DHT22;53959;53.626;11.410;2022-10-31T07:50:22;13.30;99.90
5138;DHT22;53959;53.626;11.410;2022-10-31T07:52:48;13.30;99.90
5138;DHT22;53959;53.626;11.410;2022-10-31T07:55:22;13.20;99.90
5138;DHT22;53959;53.626;11.410;2022-10-31T07:57:58;13.30;99.90
5138;DHT22;53959;53.626;11.410;2022-10-31T08:00:24;13.40;99.90
5138;DHT22;53959;53.626;11.410;2022-10-31T08:03:18;13.30;99.90
5138;DHT22;53959;53.626;11.410;2022-10-31T08:05:43;13.30;99.90
5138;DHT22;53959;53.626;11.410;2022-10-31T08:08:11;13.40;99.90
5138;DHT22;53959;53.626;11.410;2022-10-31T08:10:37;13.30;99.90
5138;DHT22;53959;53.626;11.410;2022-10-31T08:13:05;13.40;99.90
5138;DHT22;53959;53.626;11.410;2022-10-31T08:15:32;13.30;99.90
5138;DHT22;53959;53.626;11.410;2022-10-31T08:17:59;13.30;99.90
5138;DHT22;53959;53.626;11.410;2022-10-31T08:20:24;13.40;99.90
5138;DHT22;53959;53.626;11.410;2022-10-31T08:22:59;13.40;99.90
5138;DHT22;53959;53.626;11.410;2022-10-31T08:25:26;13.40;99.90
5138;DHT22;53959;53.626;11.410;2022-10-31T08:27:53;13.40;99.90
5138;DHT22;53959;53.626;11.410;2022-10-31T08:30:20;13.40;99.90
5138;DHT22;53959;53.626;11.410;2022-10-31T08:32:46;13.50;99.90
5138;DHT22;53959;53.626;11.410;2022-10-31T08:35:12;13.40;99.90
5138;DHT22;53959;53.626;11.410;2022-10-31T08:37:37;13.40;99.90
5138;DHT22;53959;53.626;11.410;2022-10-31T08:40:03;13.40;99.90
5138;DHT22;53959;53.626;11.410;2022-10-31T08:42:29;13.30;99.90
5138;DHT22;53959;53.626;11.410;2022-10-31T08:44:54;13.30;99.90
5138;DHT22;53959;53.626;11.410;2022-10-31T08:47:20;13.30;99.90
5138;DHT22;53959;53.626;11.410;2022-10-31T08:49:45;13.40;99.90
5138;DHT22;53959;53.626;11.410;2022-10-31T08:52:11;13.40;99.90
5138;DHT22;53959;53.626;11.410;2022-10-31T08:54:36;13.50;99.90
5138;DHT22;53959;53.626;11.410;2022-10-31T08:57:02;13.40;99.90
5138;DHT22;53959;53.626;11.410;2022-10-31T08:59:28;13.40;99.90
5138;DHT22;53959;53.626;11.410;2022-10-31T09:01:53;13.50;99.90
5138;DHT22;53959;53.626;11.410;2022-10-31T09:04:18;13.40;99.90
5138;DHT22;53959;53.626;11.410;2022-10-31T09:06:44;13.50;99.90
5138;DHT22;53959;53.626;11.410;2022-10-31T09:09:09;13.60;99.90
5138;DHT22;53959;53.626;11.410;2022-10-31T09:11:35;13.50;99.90
5138;DHT22;53959;53.626;11.410;2022-10-31T09:14:00;13.60;99.90
5138;DHT22;53959;53.626;11.410;2022-10-31T09:16:26;13.60;99.90
5138;DHT22;53959;53.626;11.410;2022-10-31T09:18:52;13.60;99.90
5138;DHT22;53959;53.626;11.410;2022-10-31T09:21:17;13.70;99.90
5138;DHT22;53959;53.626;11.410;2022-10-31T09:23:43;13.60;99.90
5138;DHT22;53959;53.626;11.410;2022-10-31T09:26:08;13.70;99.90
5138;DHT22;53959;53.626;11.410;2022-10-31T09:28:34;13.60;99.90
5138;DHT22;53959;53.626;11.410;2022-10-31T09:30:59;13.70;99.90
5138;DHT22;53959;53.626;11.410;2022-10-31T09:33:25;13.60;99.90
5138;DHT22;53959;53.626;11.410;2022-10-31T09:35:51;13.80;99.90
5138;DHT22;53959;53.626;11.410;2022-10-31T09:38:18;13.70;99.90
5138;DHT22;53959;53.626;11.410;2022-10-31T09:41:16;13.50;99.90
5138;DHT22;53959;53.626;11.410;2022-10-31T09:44:12;13.50;99.90
5138;DHT22;53959;53.626;11.410;2022-10-31T09:47:00;13.60;99.90
5138;DHT22;53959;53.626;11.410;2022-10-31T09:54:43;13.60;99.90
5138;DHT22;53959;53.626;11.410;2022-10-31T09:57:14;13.70;99.90
5138;DHT22;53959;53.626;11.410;2022-10-31T09:59:43;13.70;99.90
5138;DHT22;53959;53.626;11.410;2022-10-31T10:02:13;13.80;99.90
5138;DHT22;53959;53.626;11.410;2022-10-31T10:04:59;13.80;99.90
5138;DHT22;53959;53.626;11.410;2022-10-31T10:10:45;13.90;99.90
5138;DHT22;53959;53.626;11.410;2022-10-31T10:18:40;13.90;99.90
5138;DHT22;53959;53.626;11.410;2022-10-31T10:21:22;14.00;99.90
5138;DHT22;53959;53.626;11.410;2022-10-31T10:24:29;14.10;99.90
5138;DHT22;53959;53.626;11.410;2022-10-31T10:27:23;14.10;99.90
5138;DHT22;53959;53.626;11.410;2022-10-31T10:30:04;14.00;99.90
5138;DHT22;53959;53.626;11.410;2022-10-31T10:32:46;13.90;99.90
5138;DHT22;53959;53.626;11.410;2022-10-31T10:35:19;13.90;99.90
5138;DHT22;53959;53.626;11.410;2022-10-31T10:37:46;13.90;99.90
5138;DHT22;53959;53.626;11.410;2022-10-31T10:40:17;13.90;99.90
5138;DHT22;53959;53.626;11.410;2022-10-31T10:42:50;13.80;99.90
5138;DHT22;53959;53.626;11.410;2022-10-31T10:45:38;13.90;99.90
5138;DHT22;53959;53.626;11.410;2022-10-31T10:48:30;14.00;99.90
5138;DHT22;53959;53.626;11.410;2022-10-31T10:50:58;14.00;99.90
5138;DHT22;53959;53.626;11.410;2022-10-31T10:59:11;14.20;99.90
5138;DHT22;53959;53.626;11.410;2022-10-31T11:01:39;14.10;99.90
5138;DHT22;53959;53.626;11.410;2022-10-31T11:04:23;14.10;99.90
5138;DHT22;53959;53.626;11.410;2022-10-31T11:09:25;14.30;99.90
5138;DHT22;53959;53.626;11.410;2022-10-31T11:11:51;14.00;99.90
5138;DHT22;53959;53.626;11.410;2022-10-31T11:14:17;14.00;99.90
5138;DHT22;53959;53.626;11.410;2022-10-31T11:16:45;14.10;99.90
5138;DHT22;53959;53.626;11.410;2022-10-31T11:19:19;14.10;99.90
5138;DHT22;53959;53.626;11.410;2022-10-31T11:21:46;14.20;99.90
5138;DHT22;53959;53.626;11.410;2022-10-31T11:24:25;14.20;99.90
5138;DHT22;53959;53.626;11.410;2022-10-31T11:27:14;14.00;99.90
5138;DHT22;53959;53.626;11.410;2022-10-31T11:29:39;14.00;99.90
5138;DHT22;53959;53.626;11.410;2022-10-31T11:32:05;14.00;99.90
5138;DHT22;53959;53.626;11.410;2022-10-31T11:34:42;14.00;99.90
5138;DHT22;53959;53.626;11.410;2022-10-31T11:37:27;14.00;99.90
5138;DHT22;53959;53.626;11.410;2022-10-31T11:39:55;14.10;99.90
5138;DHT22;53959;53.626;11.410;2022-10-31T11:42:29;14.00;99.90
5138;DHT22;53959;53.626;11.410;2022-10-31T11:44:56;14.10;99.90
5138;DHT22;53959;53.626;11.410;2022-10-31T11:47:28;14.20;99.90
5138;DHT22;53959;53.626;11.410;2022-10-31T11:49:55;14.10;99.90
5138;DHT22;53959;53.626;11.410;2022-10-31T11:52:22;14.10;99.90
5138;DHT22;53959;53.626;11.410;2022-10-31T11:55:00;14.00;99.90
5138;DHT22;53959;53.626;11.410;2022-10-31T11:57:33;14.00;99.90
5138;DHT22;53959;53.626;11.410;2022-10-31T12:00:24;14.00;99.90
5138;DHT22;53959;53.626;11.410;2022-10-31T12:02:50;14.10;99.90
5138;DHT22;53959;53.626;11.410;2022-10-31T12:05:26;14.00;99.90
5138;DHT22;53959;53.626;11.410;2022-10-31T12:07:58;14.00;99.90
5138;DHT22;53959;53.626;11.410;2022-10-31T12:10:33;14.00;99.90
5138;DHT22;53959;53.626;11.410;2022-10-31T12:13:25;14.00;99.90
5138;DHT22;53959;53.626;11.410;2022-10-31T12:16:08;14.00;99.90
5138;DHT22;53959;53.626;11.410;2022-10-31T12:18:58;14.00;99.90
5138;DHT22;53959;53.626;11.410;2022-10-31T12:45:54;14.00;99.90
5138;DHT22;53959;53.626;11.410;2022-10-31T12:56:53;14.00;99.90
5138;DHT22;53959;53.626;11.410;2022-10-31T13:02:18;14.10;99.90
5138;DHT22;53959;53.626;11.410;2022-10-31T13:05:36;14.10;99.90
5138;DHT22;53959;53.626;11.410;2022-10-31T13:07:42;13.90;99.90
5138;DHT22;53959;53.626;11.410;2022-10-31T13:12:39;14.00;99.90
5138;DHT22;53959;53.626;11.410;2022-10-31T13:15:17;14.10;99.90
5138;DHT22;53959;53.626;11.410;2022-10-31T13:17:47;14.00;99.90
5138;DHT22;53959;53.626;11.410;2022-10-31T13:22:46;14.00;99.90
5138;DHT22;53959;53.626;11.410;2022-10-31T13:25:29;14.00;99.90
5138;DHT22;53959;53.626;11.410;2022-10-31T13:28:03;14.00;99.90
5138;DHT22;53959;53.626;11.410;2022-10-31T13:30:33;14.00;99.90
5138;DHT22;53959;53.626;11.410;2022-10-31T13:36:06;13.90;99.90
5138;DHT22;53959;53.626;11.410;2022-10-31T13:38:42;13.80;99.90
5138;DHT22;53959;53.626;11.410;2022-10-31T13:46:41;13.70;99.90
5138;DHT22;53959;53.626;11.410;2022-10-31T13:51:52;13.80;99.90
5138;DHT22;53959;53.626;11.410;2022-10-31T13:54:33;13.70;99.90
5138;DHT22;53959;53.626;11.410;2022-10-31T13:56:59;13.60;99.90
5138;DHT22;53959;53.626;11.410;2022-10-31T13:59:29;13.60;99.90
5138;DHT22;53959;53.626;11.410;2022-10-31T14:01:59;13.60;99.90
5138;DHT22;53959;53.626;11.410;2022-10-31T14:04:36;13.60;99.90
5138;DHT22;53959;53.626;11.410;2022-10-31T14:07:10;13.60;99.90
5138;DHT22;53959;53.626;11.410;2022-10-31T14:09:55;13.60;99.90
5138;DHT22;53959;53.626;11.410;2022-10-31T14:12:33;13.60;99.90
5138;DHT22;53959;53.626;11.410;2022-10-31T14:15:20;13.60;99.90
5138;DHT22;53959;53.626;11.410;2022-10-31T14:17:47;13.60;99.90
5138;DHT22;53959;53.626;11.410;2022-10-31T14:22:40;13.60;99.90
5138;DHT22;53959;53.626;11.410;2022-10-31T14:27:50;13.60;99.90
5138;DHT22;53959;53.626;11.410;2022-10-31T14:30:20;13.60;99.90
5138;DHT22;53959;53.626;11.410;2022-10-31T14:32:52;13.60;99.90
5138;DHT22;53959;53.626;11.410;2022-10-31T14:35:20;13.50;99.90
5138;DHT22;53959;53.626;11.410;2022-10-31T14:38:15;13.50;99.90
5138;DHT22;53959;53.626;11.410;2022-10-31T14:41:18;13.50;99.90
5138;DHT22;53959;53.626;11.410;2022-10-31T14:46:56;13.60;99.90
5138;DHT22;53959;53.626;11.410;2022-10-31T14:51:58;13.50;99.90
5138;DHT22;53959;53.626;11.410;2022-10-31T14:54:38;13.60;99.90
5138;DHT22;53959;53.626;11.410;2022-10-31T14:57:12;13.60;99.90
5138;DHT22;53959;53.626;11.410;2022-10-31T14:59:44;13.60;99.90
5138;DHT22;53959;53.626;11.410;2022-10-31T15:02:21;13.60;99.90
5138;DHT22;53959;53.626;11.410;2022-10-31T15:04:51;13.50;99.90
5138;DHT22;53959;53.626;11.410;2022-10-31T15:07:25;13.60;99.90
5138;DHT22;53959;53.626;11.410;2022-10-31T15:10:04;13.50;99.90
5138;DHT22;53959;53.626;11.410;2022-10-31T15:12:32;13.60;99.90
5138;DHT22;53959;53.626;11.410;2022-10-31T15:15:10;13.60;99.90
5138;DHT22;53959;53.626;11.410;2022-10-31T15:17:36;13.60;99.90
5138;DHT22;53959;53.626;11.410;2022-10-31T15:20:10;13.50;99.90
5138;DHT22;53959;53.626;11.410;2022-10-31T15:22:36;13.60;99.90
5138;DHT22;53959;53.626;11.410;2022-10-31T15:25:02;13.50;99.90
5138;DHT22;53959;53.626;11.410;2022-10-31T15:27:27;13.50;99.90
5138;DHT22;53959;53.626;11.410;2022-10-31T15:29:56;13.40;99.90
5138;DHT22;53959;53.626;11.410;2022-10-31T15:32:26;13.40;99.90
5138;DHT22;53959;53.626;11.410;2022-10-31T15:34:53;13.50;99.90
5138;DHT22;53959;53.626;11.410;2022-10-31T15:37:21;13.50;99.90
5138;DHT22;53959;53.626;11.410;2022-10-31T15:39:48;13.50;99.90
5138;DHT22;53959;53.626;11.410;2022-10-31T15:42:42;13.50;99.90
5138;DHT22;53959;53.626;11.410;2022-10-31T15:47:35;13.40;99.90
5138;DHT22;53959;53.626;11.410;2022-10-31T15:50:02;13.40;99.90
5138;DHT22;53959;53.626;11.410;2022-10-31T15:52:40;13.50;99.90
5138;DHT22;53959;53.626;11.410;2022-10-31T15:57:40;13.50;99.90
5138;DHT22;53959;53.626;11.410;2022-10-31T16:00:28;13.50;99.90
5138;DHT22;53959;53.626;11.410;2022-10-31T16:03:28;13.50;99.90
5138;DHT22;53959;53.626;11.410;2022-10-31T16:05:58;13.40;99.90
5138;DHT22;53959;53.626;11.410;2022-10-31T16:13:37;13.40;99.90
5138;DHT22;53959;53.626;11.410;2022-10-31T16:16:13;13.40;99.90
5138;DHT22;53959;53.626;11.410;2022-10-31T16:18:41;13.30;99.90
5138;DHT22;53959;53.626;11.410;2022-10-31T16:21:08;13.40;99.90
5138;DHT22;53959;53.626;11.410;2022-10-31T16:23:34;13.30;99.90
5138;DHT22;53959;53.626;11.410;2022-10-31T16:26:06;13.30;99.90
5138;DHT22;53959;53.626;11.410;2022-10-31T16:28:31;13.40;99.90
5138;DHT22;53959;53.626;11.410;2022-10-31T16:30:58;13.40;99.90
5138;DHT22;53959;53.626;11.410;2022-10-31T16:38:59;13.30;99.90
5138;DHT22;53959;53.626;11.410;2022-10-31T16:41:25;13.30;99.90
5138;DHT22;53959;53.626;11.410;2022-10-31T16:43:51;13.30;99.90
5138;DHT22;53959;53.626;11.410;2022-10-31T16:46:26;13.30;99.90
5138;DHT22;53959;53.626;11.410;2022-10-31T16:48:52;13.30;99.90
5138;DHT22;53959;53.626;11.410;2022-10-31T16:51:18;13.10;99.90
5138;DHT22;53959;53.626;11.410;2022-10-31T16:53:43;13.20;99.90
5138;DHT22;53959;53.626;11.410;2022-10-31T16:56:17;13.10;99.90
5138;DHT22;53959;53.626;11.410;2022-10-31T16:58:43;13.20;99.90
5138;DHT22;53959;53.626;11.410;2022-10-31T17:01:09;13.10;99.90
5138;DHT22;53959;53.626;11.410;2022-10-31T17:03:35;13.10;99.90
5138;DHT22;53959;53.626;11.410;2022-10-31T17:06:01;13.20;99.90
5138;DHT22;53959;53.626;11.410;2022-10-31T17:08:27;13.10;99.90
5138;DHT22;53959;53.626;11.410;2022-10-31T17:10:55;13.10;99.90
5138;DHT22;53959;53.626;11.410;2022-10-31T17:13:24;13.10;99.90
5138;DHT22;53959;53.626;11.410;2022-10-31T17:15:54;13.00;99.90
5138;DHT22;53959;53.626;11.410;2022-10-31T17:18:20;13.10;99.90
5138;DHT22;53959;53.626;11.410;2022-10-31T17:20:46;13.10;99.90
5138;DHT22;53959;53.626;11.410;2022-10-31T17:23:14;13.10;99.90
5138;DHT22;53959;53.626;11.410;2022-10-31T17:25:40;13.10;99.90
5138;DHT22;53959;53.626;11.410;2022-10-31T17:28:06;13.00;99.90
5138;DHT22;53959;53.626;11.410;2022-10-31T17:30:32;13.00;99.90
5138;DHT22;53959;53.626;11.410;2022-10-31T17:32:58;13.00;99.90
5138;DHT22;53959;53.626;11.410;2022-10-31T17:35:24;13.00;99.90
5138;DHT22;53959;53.626;11.410;2022-10-31T17:37:50;13.00;99.90
5138;DHT22;53959;53.626;11.410;2022-10-31T17:40:18;13.00;99.90
5138;DHT22;53959;53.626;11.410;2022-10-31T17:42:49;13.00;99.90
5138;DHT22;53959;53.626;11.410;2022-10-31T17:45:15;13.00;99.90
5138;DHT22;53959;53.626;11.410;2022-10-31T17:47:40;13.00;99.90